Time;durP1;ratioP1;P1;durP2;ratioP2;P2;SDS_P1;SDS_P2;PMS_P1;PMS_P2;Temp;Humidity;BMP_temperature;BMP_pressure;BME280_temperature;BME280_humidity;BME280_pressure;Samples;Min_cycle;Max_cycle;Signal;HPM_P1;HPM_P2
2022/12/07 00:02:47;;;;;;;15.63;7.95;;;7.30;63.40;;;;;;6263830;28;20033;-83
2022/12/07 00:05:48;;;;;;;13.57;5.15;;;7.30;63.40;;;;;;6264043;28;20048;-83
2022/12/07 00:08:49;;;;;;;21.67;7.60;;;7.20;63.30;;;;;;6263681;28;20029;-83
2022/12/07 00:11:51;;;;;;;10.23;5.00;;;7.20;63.40;;;;;;6252934;28;20084;-83
2022/12/07 00:14:51;;;;;;;20.50;6.60;;;7.20;63.40;;;;;;6256214;28;20033;-84
2022/12/07 00:17:53;;;;;;;12.45;5.60;;;7.20;63.40;;;;;;6256401;28;20519;-84
2022/12/07 00:21:03;;;;;;;17.88;7.15;;;7.30;63.60;;;;;;6243836;28;20092;-83
2022/12/07 00:24:07;;;;;;;20.83;7.28;;;7.30;63.50;;;;;;6259554;28;20040;-82
2022/12/07 00:27:08;;;;;;;20.90;6.22;;;7.20;63.30;;;;;;6249292;28;20092;-82
2022/12/07 00:30:09;;;;;;;12.95;6.63;;;7.20;63.40;;;;;;6257331;28;20041;-84
2022/12/07 00:33:10;;;;;;;15.85;7.07;;;7.20;63.50;;;;;;6253876;28;20119;-82
2022/12/07 00:36:17;;;;;;;17.30;7.22;;;7.20;63.50;;;;;;6231538;28;20108;-82
2022/12/07 00:39:18;;;;;;;13.25;5.45;;;7.20;63.60;;;;;;6259655;28;20396;-83
2022/12/07 00:42:19;;;;;;;16.35;6.70;;;7.10;63.60;;;;;;6252004;28;20044;-83
2022/12/07 00:45:20;;;;;;;14.18;6.07;;;7.10;63.60;;;;;;6240664;28;20038;-83
2022/12/07 00:48:23;;;;;;;16.70;7.30;;;7.10;63.80;;;;;;6276998;28;20051;-84
2022/12/07 00:51:25;;;;;;;15.48;6.65;;;7.10;63.80;;;;;;6251853;28;20044;-83
2022/12/07 00:54:26;;;;;;;13.35;5.80;;;7.10;63.90;;;;;;6274214;28;20044;-84
2022/12/07 00:57:27;;;;;;;15.88;6.45;;;7.10;63.80;;;;;;6259660;28;20040;-84
2022/12/07 01:00:28;;;;;;;19.65;6.82;;;7.10;63.80;;;;;;6256063;28;20124;-83
2022/12/07 01:03:29;;;;;;;20.25;7.18;;;7.00;64.00;;;;;;6265406;28;20033;-83
2022/12/07 01:06:31;;;;;;;16.38;5.28;;;7.00;64.10;;;;;;6245869;28;20491;-83
2022/12/07 01:09:32;;;;;;;18.63;7.22;;;7.00;64.30;;;;;;6259552;28;20025;-83
2022/12/07 01:12:33;;;;;;;21.25;7.18;;;6.90;64.40;;;;;;6262271;28;20033;-84
2022/12/07 01:15:34;;;;;;;19.27;6.53;;;6.80;64.60;;;;;;6231544;28;20115;-82
2022/12/07 01:18:36;;;;;;;15.73;6.15;;;6.80;64.80;;;;;;6235399;28;20049;-83
2022/12/07 01:21:38;;;;;;;14.43;5.38;;;6.80;65.00;;;;;;6262737;28;20114;-82
2022/12/07 01:24:39;;;;;;;16.88;7.35;;;6.80;65.10;;;;;;6252582;28;20038;-83
2022/12/07 01:27:40;;;;;;;18.15;6.13;;;6.80;65.10;;;;;;6226428;28;20362;-83
2022/12/07 01:30:41;;;;;;;15.15;6.53;;;6.80;65.20;;;;;;6261717;28;20039;-83
2022/12/07 01:33:46;;;;;;;14.30;5.80;;;6.80;65.10;;;;;;6265914;28;20377;-82
2022/12/07 01:36:47;;;;;;;16.08;6.05;;;6.90;65.30;;;;;;6272685;28;20207;-83
2022/12/07 01:39:49;;;;;;;14.35;6.50;;;6.80;65.10;;;;;;6255011;28;20519;-83
2022/12/07 01:42:50;;;;;;;13.00;5.88;;;6.80;65.10;;;;;;6257194;28;20049;-84
2022/12/07 01:45:51;;;;;;;19.73;5.60;;;6.70;65.10;;;;;;6233436;28;20029;-83
2022/12/07 01:48:52;;;;;;;20.25;7.72;;;6.80;65.20;;;;;;6257805;28;20447;-83
2022/12/07 01:52:01;;;;;;;17.38;6.82;;;6.80;65.20;;;;;;6247082;28;20041;-83
2022/12/07 01:55:09;;;;;;;14.52;6.60;;;6.90;65.30;;;;;;6250216;28;20417;-83
2022/12/07 01:58:11;;;;;;;18.23;7.65;;;6.90;65.20;;;;;;6261783;28;20040;-84
2022/12/07 02:01:13;;;;;;;14.02;5.95;;;7.00;65.10;;;;;;6256607;28;20528;-83
2022/12/07 02:04:14;;;;;;;12.07;5.88;;;7.00;65.00;;;;;;6246431;28;20048;-83
2022/12/07 02:07:15;;;;;;;15.82;6.05;;;7.00;65.00;;;;;;6264584;28;20123;-83
2022/12/07 02:10:28;;;;;;;17.13;7.28;;;7.00;65.00;;;;;;6234398;28;20486;-83
2022/12/07 02:13:34;;;;;;;16.10;6.25;;;7.00;65.00;;;;;;6251178;28;20056;-84
2022/12/07 02:16:50;;;;;;;17.63;6.53;;;7.00;64.90;;;;;;6230838;28;20060;-82
2022/12/07 02:20:00;;;;;;;17.52;7.20;;;7.10;65.10;;;;;;6240598;28;20049;-83
2022/12/07 02:23:25;;;;;;;17.05;6.22;;;7.10;65.20;;;;;;6225072;28;20033;-82
2022/12/07 02:26:57;;;;;;;14.50;5.80;;;7.10;65.00;;;;;;6239571;28;20099;-83
2022/12/07 02:30:10;;;;;;;17.35;6.63;;;7.20;65.00;;;;;;6224122;28;20145;-84
2022/12/07 02:33:17;;;;;;;15.50;6.57;;;7.20;64.80;;;;;;6255686;28;20120;-83
2022/12/07 02:36:26;;;;;;;15.40;6.75;;;7.30;64.70;;;;;;6257709;28;20045;-83
2022/12/07 02:39:48;;;;;;;14.95;6.55;;;7.30;64.60;;;;;;6256432;28;20037;-83
2022/12/07 02:42:58;;;;;;;13.18;5.07;;;7.40;64.60;;;;;;6259444;28;20063;-82
2022/12/07 02:46:22;;;;;;;15.23;6.60;;;7.40;64.40;;;;;;6255795;28;20032;-83
2022/12/07 02:49:26;;;;;;;16.13;6.30;;;7.40;64.30;;;;;;6202033;28;20044;-83
2022/12/07 02:52:27;;;;;;;15.27;6.75;;;7.30;64.20;;;;;;6242021;28;20033;-84
2022/12/07 02:55:35;;;;;;;15.45;6.78;;;7.30;64.30;;;;;;6258380;28;20048;-82
2022/12/07 02:58:47;;;;;;;13.80;6.38;;;7.20;64.40;;;;;;6245322;28;20030;-83
2022/12/07 03:02:16;;;;;;;16.73;6.38;;;7.30;64.40;;;;;;6238151;28;20057;-84
2022/12/07 03:05:17;;;;;;;;;;;7.30;64.60;;;;;;6238867;28;20037;-83
2022/12/07 03:08:41;;;;;;;14.65;6.22;;;7.30;64.50;;;;;;6244515;28;20250;-84
2022/12/07 03:11:50;;;;;;;15.15;6.13;;;7.40;64.30;;;;;;6235510;28;20030;-82
2022/12/07 03:15:08;;;;;;;15.27;6.50;;;7.40;64.30;;;;;;6233902;28;20119;-83
2022/12/07 03:18:15;;;;;;;12.30;4.30;;;7.40;64.30;;;;;;6241346;28;20059;-83
2022/12/07 03:21:20;;;;;;;13.52;5.82;;;7.40;64.20;;;;;;6249677;28;20049;-83
2022/12/07 03:24:25;;;;;;;14.50;6.00;;;7.50;64.20;;;;;;6269000;28;20117;-83
2022/12/07 03:27:45;;;;;;;18.00;6.50;;;7.50;64.20;;;;;;6242366;28;20128;-84
2022/12/07 03:30:59;;;;;;;18.13;7.07;;;7.50;64.20;;;;;;6238871;28;20044;-83
2022/12/07 03:34:07;;;;;;;14.95;6.32;;;7.50;64.10;;;;;;6258244;28;20037;-83
2022/12/07 03:37:33;;;;;;;13.35;5.15;;;7.50;64.00;;;;;;6240088;28;20030;-84
2022/12/07 03:40:41;;;;;;;18.02;6.72;;;7.40;64.00;;;;;;6251560;28;20041;-83
2022/12/07 03:43:42;;;;;;;16.98;6.85;;;7.30;64.10;;;;;;6219301;28;20048;-83
2022/12/07 03:46:49;;;;;;;15.77;6.10;;;7.30;64.20;;;;;;6238466;28;20033;-84
2022/12/07 03:50:02;;;;;;;22.77;6.78;;;7.30;64.40;;;;;;6246052;28;20061;-83
2022/12/07 03:53:15;;;;;;;14.55;6.25;;;7.30;64.60;;;;;;6227000;28;20044;-85
2022/12/07 03:56:16;;;;;;;16.23;6.68;;;7.30;64.60;;;;;;6229635;28;20116;-83
2022/12/07 03:59:18;;;;;;;13.30;6.90;;;7.40;64.60;;;;;;6242051;28;20056;-83
2022/12/07 04:02:19;;;;;;;16.85;7.05;;;7.40;64.50;;;;;;6218474;28;20037;-84
2022/12/07 04:05:20;;;;;;;17.70;7.07;;;7.50;64.50;;;;;;6219245;28;20597;-83
2022/12/07 04:08:21;;;;;;;17.48;5.45;;;7.50;64.40;;;;;;6225588;28;20037;-83
2022/12/07 04:11:22;;;;;;;24.00;6.57;;;7.60;64.30;;;;;;6240632;28;20041;-83
2022/12/07 04:14:23;;;;;;;15.32;6.30;;;7.60;64.30;;;;;;6215346;28;20045;-83
2022/12/07 04:17:24;;;;;;;17.42;6.47;;;7.60;64.20;;;;;;6250599;28;20053;-83
2022/12/07 04:20:25;;;;;;;16.00;6.30;;;7.70;64.10;;;;;;6237022;28;20022;-82
2022/12/07 04:23:26;;;;;;;15.48;6.60;;;7.70;63.90;;;;;;6226602;28;20026;-82
2022/12/07 04:26:27;;;;;;;15.23;5.75;;;7.60;63.80;;;;;;6236207;28;20343;-83
2022/12/07 04:29:28;;;;;;;20.02;7.28;;;7.60;63.80;;;;;;6254127;28;20083;-82
2022/12/07 04:32:29;;;;;;;14.10;6.03;;;7.70;63.90;;;;;;6244923;28;20026;-83
2022/12/07 04:35:30;;;;;;;19.48;7.28;;;7.70;63.90;;;;;;6250174;28;20037;-83
2022/12/07 04:38:31;;;;;;;15.45;6.25;;;7.80;63.80;;;;;;6240931;28;20033;-82
2022/12/07 04:41:33;;;;;;;14.70;5.57;;;7.80;63.70;;;;;;6221616;28;20429;-83
2022/12/07 04:44:34;;;;;;;18.95;7.35;;;7.90;63.80;;;;;;6243945;28;20057;-83
2022/12/07 04:47:35;;;;;;;17.27;7.45;;;7.90;63.60;;;;;;6249085;28;20037;-83
2022/12/07 04:50:38;;;;;;;18.65;7.30;;;7.90;63.50;;;;;;6241965;28;20041;-83
2022/12/07 04:53:39;;;;;;;16.48;6.50;;;7.80;63.40;;;;;;6234808;28;20033;-84
2022/12/07 04:56:40;;;;;;;12.65;6.00;;;7.70;63.50;;;;;;6216996;28;20543;-83
2022/12/07 04:59:40;;;;;;;13.98;5.88;;;7.70;63.50;;;;;;6198843;28;20053;-83
2022/12/07 05:02:41;;;;;;;14.70;6.40;;;7.80;63.50;;;;;;6239819;28;20044;-83
2022/12/07 05:05:42;;;;;;;19.20;6.88;;;7.80;63.50;;;;;;6219616;28;20069;-83
2022/12/07 05:08:43;;;;;;;12.45;5.43;;;7.90;63.40;;;;;;6214559;28;20052;-83
2022/12/07 05:11:44;;;;;;;12.10;5.60;;;7.90;63.20;;;;;;6226983;28;20099;-83
2022/12/07 05:14:45;;;;;;;26.48;6.88;;;7.90;63.00;;;;;;6236005;28;20045;-83
2022/12/07 05:17:47;;;;;;;14.52;6.47;;;7.90;63.10;;;;;;6242662;28;20038;-84
2022/12/07 05:20:49;;;;;;;20.85;6.50;;;7.90;63.00;;;;;;6222122;28;20034;-83
2022/12/07 05:23:50;;;;;;;18.52;6.82;;;7.90;63.00;;;;;;6240147;28;20044;-82
2022/12/07 05:26:51;;;;;;;14.45;6.15;;;8.00;63.00;;;;;;6254319;28;20032;-82
2022/12/07 05:29:51;;;;;;;15.20;6.82;;;8.00;62.90;;;;;;6228130;28;20050;-82
2022/12/07 05:32:53;;;;;;;19.63;7.60;;;8.00;62.70;;;;;;6218168;28;20034;-83
2022/12/07 05:35:53;;;;;;;12.77;5.82;;;8.00;62.50;;;;;;6238201;28;20120;-85
2022/12/07 05:38:54;;;;;;;10.82;5.88;;;7.90;62.40;;;;;;6242061;28;20130;-83
2022/12/07 05:42:13;;;;;;;14.77;6.82;;;7.90;62.50;;;;;;6248037;28;20048;-84
2022/12/07 05:45:14;;;;;;;17.60;6.07;;;7.90;62.40;;;;;;6249700;28;20049;-82
2022/12/07 05:48:15;;;;;;;14.40;6.57;;;7.90;62.20;;;;;;6217778;28;20494;-84
2022/12/07 05:51:16;;;;;;;18.85;6.20;;;7.90;62.10;;;;;;6218185;28;20042;-83
2022/12/07 05:54:17;;;;;;;12.18;5.97;;;7.90;62.20;;;;;;6215778;28;20060;-83
2022/12/07 05:57:18;;;;;;;20.63;7.57;;;7.80;62.20;;;;;;6242398;28;20037;-78
2022/12/07 06:00:20;;;;;;;18.40;6.65;;;7.80;62.40;;;;;;6257093;28;20041;-80
2022/12/07 06:03:21;;;;;;;17.10;8.02;;;7.80;62.20;;;;;;6250112;28;20073;-80
2022/12/07 06:06:21;;;;;;;20.50;6.35;;;7.80;62.10;;;;;;6240833;28;20053;-79
2022/12/07 06:09:24;;;;;;;17.20;7.10;;;7.90;62.10;;;;;;6226206;28;20478;-79
2022/12/07 06:12:34;;;;;;;16.33;6.63;;;7.80;62.20;;;;;;6237308;28;20116;-78
2022/12/07 06:15:38;;;;;;;17.38;7.43;;;7.80;62.20;;;;;;6245504;28;20127;-78
2022/12/07 06:18:39;;;;;;;20.35;9.35;;;7.90;62.30;;;;;;6227061;28;20065;-76
2022/12/07 06:21:40;;;;;;;16.65;7.78;;;7.90;62.20;;;;;;6255887;28;20051;-78
2022/12/07 06:24:41;;;;;;;18.48;7.40;;;7.90;62.30;;;;;;6234572;28;20033;-77
2022/12/07 06:27:41;;;;;;;21.08;7.10;;;8.00;62.20;;;;;;6259763;28;20042;-78
2022/12/07 06:30:43;;;;;;;16.60;6.63;;;7.90;62.10;;;;;;6239092;28;20037;-79
2022/12/07 06:33:44;;;;;;;22.90;7.88;;;7.90;62.10;;;;;;6241818;28;20116;-80
2022/12/07 06:36:50;;;;;;;18.45;6.65;;;8.00;61.90;;;;;;6225080;28;20042;-80
2022/12/07 06:39:51;;;;;;;19.42;6.72;;;7.90;61.80;;;;;;6237118;28;20121;-80
2022/12/07 06:42:52;;;;;;;18.27;7.53;;;7.90;61.90;;;;;;6228650;28;20098;-80
2022/12/07 06:45:53;;;;;;;17.60;6.63;;;7.90;62.00;;;;;;6245933;28;20296;-80
2022/12/07 06:48:55;;;;;;;17.20;6.97;;;7.80;62.10;;;;;;6231465;28;20395;-79
2022/12/07 06:51:56;;;;;;;16.88;6.15;;;7.80;62.10;;;;;;6242462;28;20033;-78
2022/12/07 06:54:59;;;;;;;15.95;6.97;;;7.80;62.20;;;;;;6241913;28;20352;-80
2022/12/07 06:58:01;;;;;;;16.50;7.20;;;7.80;62.20;;;;;;6240224;28;20099;-80
2022/12/07 07:01:02;;;;;;;17.83;8.10;;;7.90;62.20;;;;;;6244933;28;20524;-81
2022/12/07 07:04:05;;;;;;;18.35;7.75;;;7.90;62.20;;;;;;6230479;28;20049;-81
2022/12/07 07:07:06;;;;;;;17.02;6.45;;;7.90;62.10;;;;;;6238505;28;20489;-80
2022/12/07 07:10:08;;;;;;;19.15;6.40;;;7.90;62.20;;;;;;6221076;28;20037;-80
2022/12/07 07:13:09;;;;;;;26.13;7.90;;;7.80;62.20;;;;;;6225805;28;20126;-80
2022/12/07 07:16:10;;;;;;;18.55;6.80;;;7.80;62.30;;;;;;6234146;28;20057;-80
2022/12/07 07:19:11;;;;;;;13.02;6.07;;;7.90;62.50;;;;;;6246636;28;20065;-80
2022/12/07 07:22:12;;;;;;;20.95;7.60;;;7.90;62.50;;;;;;6247288;28;20124;-80
2022/12/07 07:25:14;;;;;;;15.75;6.72;;;7.90;62.60;;;;;;6244236;28;20037;-80
2022/12/07 07:28:15;;;;;;;17.77;7.00;;;7.90;62.50;;;;;;6246158;28;20060;-79
2022/12/07 07:31:16;;;;;;;17.02;8.38;;;8.00;62.40;;;;;;6237345;28;20056;-79
2022/12/07 07:34:17;;;;;;;21.58;7.60;;;8.00;62.40;;;;;;6235286;28;20037;-81
2022/12/07 07:37:18;;;;;;;19.83;7.10;;;8.00;62.40;;;;;;6241887;28;20052;-79
2022/12/07 07:40:19;;;;;;;18.60;6.70;;;8.00;62.30;;;;;;6241050;28;20029;-80
2022/12/07 07:43:20;;;;;;;17.15;6.80;;;8.00;62.20;;;;;;6258640;28;20040;-80
2022/12/07 07:46:21;;;;;;;13.90;6.05;;;8.00;62.10;;;;;;6244792;28;20446;-80
2022/12/07 07:49:22;;;;;;;14.48;6.38;;;8.00;62.00;;;;;;6233687;28;20037;-80
2022/12/07 07:52:23;;;;;;;12.88;7.03;;;8.00;62.10;;;;;;6243006;28;20038;-81
2022/12/07 07:55:24;;;;;;;14.52;5.65;;;8.00;62.00;;;;;;6244024;28;20051;-82
2022/12/07 07:58:25;;;;;;;20.02;6.22;;;8.00;62.00;;;;;;6244006;28;20041;-81
2022/12/07 08:01:26;;;;;;;24.88;8.20;;;8.00;61.80;;;;;;6244311;28;20041;-81
2022/12/07 08:04:27;;;;;;;20.00;7.13;;;8.10;61.70;;;;;;6215985;28;20038;-80
2022/12/07 08:07:28;;;;;;;15.13;6.70;;;8.10;61.60;;;;;;6241186;28;20091;-81
2022/12/07 08:10:29;;;;;;;18.88;7.32;;;8.10;61.50;;;;;;6243752;28;20037;-80
2022/12/07 08:13:30;;;;;;;19.35;7.28;;;8.10;61.50;;;;;;6242655;28;20399;-80
2022/12/07 08:16:31;;;;;;;13.10;6.10;;;8.10;61.40;;;;;;6226469;28;20096;-80
2022/12/07 08:19:32;;;;;;;14.32;5.82;;;8.20;61.50;;;;;;6211341;28;20512;-81
2022/12/07 08:22:33;;;;;;;15.90;6.10;;;8.40;61.40;;;;;;6253159;28;20478;-79
2022/12/07 08:25:34;;;;;;;13.65;6.00;;;8.30;61.20;;;;;;6235396;28;20045;-79
2022/12/07 08:28:36;;;;;;;18.67;8.05;;;8.30;61.00;;;;;;6239680;28;20030;-81
2022/12/07 08:31:37;;;;;;;15.02;7.18;;;8.30;60.90;;;;;;6220328;28;20033;-79
2022/12/07 08:34:38;;;;;;;15.85;7.53;;;8.30;60.70;;;;;;6239699;28;20083;-80
2022/12/07 08:37:39;;;;;;;16.90;6.07;;;8.40;60.70;;;;;;6240989;28;20473;-80
2022/12/07 08:40:40;;;;;;;13.90;6.53;;;8.30;60.50;;;;;;6242220;28;20176;-80
2022/12/07 08:43:41;;;;;;;16.17;7.35;;;8.30;60.50;;;;;;6220181;28;20050;-80
2022/12/07 08:46:49;;;;;;;27.73;7.93;;;8.30;60.50;;;;;;6230073;28;20500;-80
2022/12/07 08:49:53;;;;;;;22.85;7.63;;;8.30;60.60;;;;;;6242735;28;20053;-80
2022/12/07 08:52:57;;;;;;;19.92;7.20;;;8.40;60.60;;;;;;6237902;28;20088;-80
2022/12/07 08:55:58;;;;;;;23.40;7.63;;;8.40;60.30;;;;;;6233939;28;20474;-80
2022/12/07 08:58:59;;;;;;;14.90;7.20;;;8.40;60.10;;;;;;6254325;28;20072;-79
2022/12/07 09:02:00;;;;;;;17.83;7.53;;;8.50;60.00;;;;;;6253472;28;20068;-81
2022/12/07 09:05:01;;;;;;;24.60;8.13;;;8.50;59.80;;;;;;6245706;28;20040;-81
2022/12/07 09:08:02;;;;;;;18.17;6.85;;;8.50;59.70;;;;;;6256311;28;20041;-81
2022/12/07 09:11:03;;;;;;;22.38;7.78;;;8.50;59.60;;;;;;6243385;28;20068;-81
2022/12/07 09:14:06;;;;;;;18.98;6.82;;;8.50;59.50;;;;;;6243573;28;20045;-81
2022/12/07 09:17:08;;;;;;;16.33;6.78;;;8.40;59.40;;;;;;6257433;28;20378;-81
2022/12/07 09:20:10;;;;;;;16.38;6.95;;;8.40;59.40;;;;;;6254551;28;20049;-81
2022/12/07 09:23:11;;;;;;;18.00;7.45;;;8.40;59.30;;;;;;6241710;28;20041;-81
2022/12/07 09:26:12;;;;;;;19.92;7.22;;;8.40;59.30;;;;;;6222011;28;20041;-81
2022/12/07 09:29:12;;;;;;;31.58;7.85;;;8.30;59.20;;;;;;6214079;28;20053;-80
2022/12/07 09:32:14;;;;;;;19.17;6.68;;;8.40;59.30;;;;;;6216558;28;20037;-81
2022/12/07 09:35:15;;;;;;;17.08;7.35;;;8.40;59.30;;;;;;6229458;28;20144;-81
2022/12/07 09:38:17;;;;;;;20.17;7.30;;;8.40;59.20;;;;;;6254714;28;20041;-80
2022/12/07 09:41:19;;;;;;;18.00;6.20;;;8.40;59.20;;;;;;6243721;28;20045;-81
2022/12/07 09:44:26;;;;;;;19.75;7.38;;;8.50;59.20;;;;;;6248595;28;20034;-79
2022/12/07 09:47:28;;;;;;;14.55;7.07;;;8.50;59.10;;;;;;6255622;28;20034;-80
2022/12/07 09:50:30;;;;;;;14.90;7.43;;;8.50;59.00;;;;;;6239514;28;20038;-80
2022/12/07 09:53:38;;;;;;;27.33;7.95;;;8.50;59.00;;;;;;6258158;28;20030;-82
2022/12/07 09:56:39;;;;;;;17.03;6.03;;;8.40;58.90;;;;;;6250545;28;20041;-81
2022/12/07 09:59:41;;;;;;;16.30;7.10;;;8.50;58.80;;;;;;6239588;28;20041;-80
2022/12/07 10:02:45;;;;;;;17.75;7.13;;;8.50;58.70;;;;;;6236693;28;20076;-80
2022/12/07 10:05:50;;;;;;;20.52;8.10;;;8.60;58.80;;;;;;6254997;28;20501;-82
2022/12/07 10:08:51;;;;;;;18.60;7.72;;;8.70;58.80;;;;;;6255758;28;20033;-80
2022/12/07 10:12:12;;;;;;;19.65;7.95;;;8.70;58.80;;;;;;6239034;28;20041;-81
2022/12/07 10:15:14;;;;;;;19.98;8.25;;;8.70;58.80;;;;;;6236210;28;20053;-81
2022/12/07 10:18:36;;;;;;;23.45;8.15;;;8.70;58.70;;;;;;6239269;28;20099;-80
2022/12/07 10:21:37;;;;;;;24.83;8.00;;;8.70;58.70;;;;;;6244355;28;20037;-81
2022/12/07 10:24:42;;;;;;;13.07;6.93;;;8.60;58.80;;;;;;6234748;28;20522;-81
2022/12/07 10:27:43;;;;;;;20.02;7.22;;;8.60;58.90;;;;;;6232221;28;20033;-80
2022/12/07 10:31:03;;;;;;;17.98;8.45;;;8.60;59.00;;;;;;6251013;28;20477;-81
2022/12/07 10:34:03;;;;;;;19.33;8.05;;;8.50;59.00;;;;;;6212866;28;20030;-81
2022/12/07 10:37:16;;;;;;;26.60;9.75;;;8.50;59.20;;;;;;6214939;28;20049;-79
2022/12/07 10:40:33;;;;;;;19.85;8.13;;;8.50;59.30;;;;;;6208186;28;20041;-80
2022/12/07 10:43:34;;;;;;;31.83;7.88;;;8.60;59.40;;;;;;6186772;28;20046;-81
2022/12/07 10:47:10;;;;;;;22.35;8.15;;;8.60;59.30;;;;;;6214543;28;20046;-81
2022/12/07 10:50:31;;;;;;;22.10;8.63;;;8.70;59.30;;;;;;6219511;28;20136;-80
2022/12/07 10:53:37;;;;;;;16.58;7.60;;;8.80;59.20;;;;;;6212015;28;20037;-81
2022/12/07 10:56:47;;;;;;;25.48;10.38;;;8.80;59.10;;;;;;6217355;28;20042;-79
2022/12/07 11:00:15;;;;;;;19.92;7.50;;;8.80;59.00;;;;;;6218722;28;20084;-80
2022/12/07 11:03:41;;;;;;;20.85;8.10;;;8.80;59.00;;;;;;6236549;28;20037;-82
2022/12/07 11:07:11;;;;;;;20.33;7.60;;;8.80;58.90;;;;;;6255928;28;20079;-82
2022/12/07 11:10:22;;;;;;;15.82;7.35;;;8.90;58.80;;;;;;6231395;28;20480;-81
2022/12/07 11:13:57;;;;;;;23.33;8.77;;;8.90;58.70;;;;;;6239569;28;20041;-81
2022/12/07 11:17:24;;;;;;;20.10;8.07;;;8.90;58.60;;;;;;6236047;28;20248;-80
2022/12/07 11:20:46;;;;;;;17.08;7.03;;;8.90;58.50;;;;;;6238905;28;20413;-80
2022/12/07 11:24:08;;;;;;;20.15;7.50;;;8.90;58.40;;;;;;6192020;28;20095;-82
2022/12/07 11:27:40;;;;;;;18.35;7.40;;;9.00;58.40;;;;;;6254849;28;20041;-80
2022/12/07 11:31:22;;;;;;;14.30;7.85;;;9.00;58.20;;;;;;6215961;28;20104;-81
2022/12/07 11:34:56;;;;;;;19.48;7.57;;;9.20;58.10;;;;;;6130180;28;20035;-81
2022/12/07 11:38:07;;;;;;;16.75;7.15;;;9.10;57.90;;;;;;6147021;28;20121;-82
2022/12/07 11:41:15;;;;;;;16.73;6.25;;;9.10;57.50;;;;;;6138996;28;20027;-80
2022/12/07 11:44:39;;;;;;;16.50;6.95;;;9.20;57.20;;;;;;6127667;28;20035;-80
2022/12/07 11:47:53;;;;;;;18.58;7.53;;;9.20;57.00;;;;;;6134503;28;20035;-80
2022/12/07 11:50:59;;;;;;;16.17;7.57;;;9.20;56.90;;;;;;6147133;28;20121;-80
2022/12/07 11:54:12;;;;;;;21.75;7.60;;;9.20;56.80;;;;;;6128356;28;20031;-80
2022/12/07 11:57:31;;;;;;;20.33;7.43;;;9.20;56.80;;;;;;6122111;28;20051;-80
2022/12/07 12:00:33;;;;;;;20.92;9.00;;;9.20;57.00;;;;;;6142185;28;20038;-80
2022/12/07 12:03:38;;;;;;;21.85;8.15;;;9.30;57.00;;;;;;6147472;28;20480;-81
2022/12/07 12:06:44;;;;;;;21.88;7.60;;;9.20;57.00;;;;;;6212296;28;20462;-80
2022/12/07 12:10:04;;;;;;;19.50;8.20;;;9.20;57.10;;;;;;6209466;28;20047;-80
2022/12/07 12:13:35;;;;;;;22.75;7.75;;;9.20;57.10;;;;;;6227699;28;20053;-78
2022/12/07 12:17:05;;;;;;;21.23;7.25;;;9.20;57.10;;;;;;6209698;28;20038;-78
2022/12/07 12:20:28;;;;;;;19.42;8.40;;;9.20;56.80;;;;;;6232474;28;20445;-80
2022/12/07 12:23:55;;;;;;;20.95;7.07;;;9.10;56.70;;;;;;6194488;28;20062;-78
2022/12/07 12:27:09;;;;;;;17.30;7.90;;;9.10;56.70;;;;;;6240930;28;20037;-80
2022/12/07 12:30:25;;;;;;;17.45;7.35;;;9.20;56.80;;;;;;6243018;28;20045;-78
2022/12/07 12:33:31;;;;;;;16.95;8.18;;;9.20;56.80;;;;;;6233425;28;20228;-78
2022/12/07 12:36:35;;;;;;;17.92;7.78;;;9.30;56.80;;;;;;6236868;28;20037;-78
2022/12/07 12:39:36;;;;;;;22.20;9.63;;;9.40;56.70;;;;;;6235984;28;20033;-79
2022/12/07 12:42:50;;;;;;;24.48;9.13;;;9.40;56.70;;;;;;6241810;28;20045;-78
2022/12/07 12:46:33;;;;;;;29.60;8.57;;;9.40;56.80;;;;;;6195355;28;20185;-78
2022/12/07 12:49:39;;;;;;;20.67;8.27;;;9.40;56.70;;;;;;6209533;28;20049;-78
2022/12/07 12:52:40;;;;;;;21.40;8.18;;;9.40;56.60;;;;;;6226585;28;20038;-78
2022/12/07 12:55:41;;;;;;;25.38;9.55;;;9.40;56.70;;;;;;6216446;28;20057;-79
2022/12/07 12:58:45;;;;;;;21.75;8.48;;;9.40;56.70;;;;;;6207523;28;20084;-79
2022/12/07 13:01:48;;;;;;;22.30;8.55;;;9.40;56.70;;;;;;6195912;28;20030;-78
2022/12/07 13:04:51;;;;;;;20.85;7.57;;;9.40;56.70;;;;;;6226025;28;20054;-79
2022/12/07 13:08:23;;;;;;;22.85;9.00;;;9.40;56.70;;;;;;6211274;28;20072;-78
2022/12/07 13:11:30;;;;;;;32.92;8.13;;;9.40;56.70;;;;;;6204918;28;20662;-80
2022/12/07 13:14:40;;;;;;;17.33;8.07;;;9.30;56.70;;;;;;6209729;28;20042;-77
2022/12/07 13:17:41;;;;;;;19.63;8.10;;;9.30;56.70;;;;;;6208698;28;20030;-79
2022/12/07 13:21:02;;;;;;;18.05;7.03;;;9.30;56.70;;;;;;6223943;28;20030;-77
2022/12/07 13:24:09;;;;;;;15.13;6.93;;;9.30;56.70;;;;;;6222743;28;20103;-78
2022/12/07 13:27:12;;;;;;;14.27;7.80;;;9.30;56.70;;;;;;6212629;28;20530;-79
2022/12/07 13:30:19;;;;;;;19.67;8.10;;;9.20;56.60;;;;;;6232259;28;20030;-76
2022/12/07 13:33:20;;;;;;;18.67;7.78;;;9.20;56.60;;;;;;6216774;28;20045;-80
2022/12/07 13:36:35;;;;;;;20.10;7.55;;;9.20;56.70;;;;;;6216334;28;20548;-78
2022/12/07 13:39:51;;;;;;;18.70;6.90;;;9.20;56.70;;;;;;6214284;28;20319;-79
2022/12/07 13:43:04;;;;;;;18.38;7.78;;;9.20;56.80;;;;;;6216875;28;20062;-79
2022/12/07 13:46:09;;;;;;;18.25;8.30;;;9.20;56.60;;;;;;6221568;28;20049;-78
2022/12/07 13:49:25;;;;;;;21.58;8.80;;;9.30;56.70;;;;;;6219771;28;20033;-80
2022/12/07 13:52:30;;;;;;;26.10;9.30;;;9.20;56.60;;;;;;6213922;28;20136;-81
2022/12/07 13:55:33;;;;;;;16.38;7.28;;;9.20;56.60;;;;;;6238731;28;20084;-81
2022/12/07 13:58:34;;;;;;;18.75;7.78;;;9.20;56.50;;;;;;6250760;28;20258;-81
2022/12/07 14:01:37;;;;;;;22.33;8.15;;;9.20;56.60;;;;;;6234562;28;20351;-81
2022/12/07 14:04:38;;;;;;;18.73;7.65;;;9.20;56.60;;;;;;6241303;28;20049;-80
2022/12/07 14:08:01;;;;;;;16.88;7.47;;;9.20;56.50;;;;;;6254599;28;20051;-80
2022/12/07 14:11:02;;;;;;;16.58;6.57;;;9.20;56.30;;;;;;6236813;28;20095;-81
2022/12/07 14:14:04;;;;;;;18.75;7.80;;;9.20;56.40;;;;;;6242053;28;20041;-80
2022/12/07 14:17:17;;;;;;;15.43;6.70;;;9.20;56.50;;;;;;6232965;28;20363;-80
2022/12/07 14:20:33;;;;;;;17.55;8.02;;;9.20;56.40;;;;;;6211593;28;20044;-81
2022/12/07 14:23:36;;;;;;;18.63;7.95;;;9.30;56.50;;;;;;6237886;28;20037;-81
2022/12/07 14:26:39;;;;;;;18.00;8.10;;;9.40;56.30;;;;;;6251259;28;20504;-81
2022/12/07 14:29:40;;;;;;;19.83;8.27;;;9.30;56.60;;;;;;6256381;28;20045;-81
2022/12/07 14:32:42;;;;;;;17.23;6.28;;;9.30;55.80;;;;;;6244560;28;20064;-80
2022/12/07 14:35:43;;;;;;;20.15;7.72;;;9.30;55.80;;;;;;6240436;28;20053;-83
2022/12/07 14:38:46;;;;;;;23.65;8.70;;;9.20;55.80;;;;;;6250634;28;20033;-81
2022/12/07 14:41:52;;;;;;;19.58;7.05;;;9.20;55.90;;;;;;6216086;28;20044;-83
2022/12/07 14:44:54;;;;;;;21.60;7.97;;;9.10;55.80;;;;;;6235470;28;20423;-81
2022/12/07 14:47:54;;;;;;;16.98;6.90;;;9.10;55.80;;;;;;6244242;28;20033;-81
2022/12/07 14:50:56;;;;;;;19.60;7.70;;;9.20;55.90;;;;;;6227799;28;20038;-81
2022/12/07 14:53:57;;;;;;;18.83;7.40;;;9.20;56.00;;;;;;6216514;28;20041;-80
2022/12/07 14:56:58;;;;;;;15.02;6.93;;;9.20;55.90;;;;;;6219827;28;20037;-80
2022/12/07 14:59:59;;;;;;;20.67;8.25;;;9.30;55.90;;;;;;6217816;28;20080;-80
2022/12/07 15:03:00;;;;;;;19.55;7.55;;;9.30;55.80;;;;;;6219825;28;20041;-82
2022/12/07 15:06:01;;;;;;;16.27;7.53;;;9.30;55.60;;;;;;6239800;28;20036;-80
2022/12/07 15:09:03;;;;;;;23.23;8.65;;;9.30;55.60;;;;;;6245328;28;20101;-81
2022/12/07 15:12:04;;;;;;;17.63;7.45;;;9.30;56.30;;;;;;6242468;28;20036;-81
2022/12/07 15:15:05;;;;;;;20.65;8.35;;;9.30;55.70;;;;;;6222043;28;20465;-81
2022/12/07 15:18:06;;;;;;;20.25;7.30;;;9.30;55.60;;;;;;6210087;28;20467;-80
2022/12/07 15:21:13;;;;;;;15.20;6.32;;;9.30;55.50;;;;;;6195169;28;20058;-78
2022/12/07 15:24:14;;;;;;;19.42;6.65;;;9.30;56.20;;;;;;6218036;28;20038;-80
2022/12/07 15:27:15;;;;;;;18.30;6.97;;;9.20;55.30;;;;;;6231391;28;20474;-81
2022/12/07 15:30:17;;;;;;;27.50;9.70;;;9.10;55.30;;;;;;6215266;28;20381;-80
2022/12/07 15:33:18;;;;;;;25.27;10.52;;;9.20;55.40;;;;;;6233575;28;20033;-80
2022/12/07 15:36:24;;;;;;;21.25;8.55;;;9.20;55.50;;;;;;6243666;28;20053;-80
2022/12/07 15:39:25;;;;;;;15.98;6.95;;;9.10;55.40;;;;;;6257706;28;20041;-80
2022/12/07 15:42:26;;;;;;;18.77;7.13;;;9.10;55.50;;;;;;6248739;28;20516;-81
2022/12/07 15:45:27;;;;;;;19.17;8.20;;;9.10;55.60;;;;;;6242760;28;20124;-80
2022/12/07 15:48:28;;;;;;;23.80;8.13;;;9.10;55.60;;;;;;6258203;28;20056;-81
2022/12/07 15:51:34;;;;;;;22.83;9.05;;;9.10;55.70;;;;;;6229462;28;20120;-80
2022/12/07 15:54:35;;;;;;;17.05;8.13;;;9.10;55.70;;;;;;6238988;28;20041;-81
2022/12/07 15:57:37;;;;;;;18.88;8.63;;;9.20;55.70;;;;;;6253665;28;20069;-80
2022/12/07 16:00:38;;;;;;;20.20;8.10;;;9.20;55.70;;;;;;6237876;28;20030;-81
2022/12/07 16:03:39;;;;;;;18.85;6.95;;;9.20;55.40;;;;;;6248053;28;20216;-79
2022/12/07 16:06:40;;;;;;;15.98;7.15;;;9.30;55.30;;;;;;6250077;28;20072;-81
2022/12/07 16:09:45;;;;;;;21.35;6.63;;;9.20;55.10;;;;;;6222151;28;20034;-81